Archival Weather

Komakuk Beach

Komakuk Beach, Canada (CWKM)

Report from: Saturday, April 1, 2023 4:00 PM UTC
Current time: Tuesday, July 16, 2024 10:22 AM UTC

Current weather – Weather history – Daily summaries
Weather forecast

Present weatherSM
Temperature-18.0°C (-0.4°F)
Wind chill-28.8°C (-19.9°F)
Dew point-20.0°C (-4.0°F)
Winds 13 kts (6.7 m/s, 15 mph) East-Southeast (110°)
Visibility0 ft. (0 m)
Clouds Sky clear
Altimeter29.91 in.Hg (1013 mB)
Relative humidity84 %
Density altitude-4,168 ft. (-1,270 m)
Remarks Fully automated report
No clouds detected
Flight conditions Low Instrument Meteorological Conditions
Raw dataCWKM 011600Z AUTO 11013KT ////SM NCD M18/M20 A2991
An error has occurred. This application may no longer respond until reloaded. Reload 🗙